sensor_id;sensor_type;location;lat;lon;timestamp;temperature;humidity
13697;DHT22;6920;50.080;8.226;2022-09-03T00:00:10;17.20;99.90
13697;DHT22;6920;50.080;8.226;2022-09-03T00:02:41;17.20;99.90
13697;DHT22;6920;50.080;8.226;2022-09-03T00:05:24;17.20;99.90
13697;DHT22;6920;50.080;8.226;2022-09-03T00:07:59;17.20;99.90
13697;DHT22;6920;50.080;8.226;2022-09-03T00:10:36;17.20;99.90
13697;DHT22;6920;50.080;8.226;2022-09-03T00:15:39;17.60;99.90
13697;DHT22;6920;50.080;8.226;2022-09-03T00:18:13;17.70;99.90
13697;DHT22;6920;50.080;8.226;2022-09-03T00:23:28;17.90;99.90
13697;DHT22;6920;50.080;8.226;2022-09-03T00:26:00;18.00;99.90
13697;DHT22;6920;50.080;8.226;2022-09-03T00:28:37;17.90;99.90
13697;DHT22;6920;50.080;8.226;2022-09-03T00:31:13;17.90;99.90
13697;DHT22;6920;50.080;8.226;2022-09-03T00:33:57;17.90;99.90
13697;DHT22;6920;50.080;8.226;2022-09-03T00:36:34;17.90;99.90
13697;DHT22;6920;50.080;8.226;2022-09-03T00:39:10;17.80;99.90
13697;DHT22;6920;50.080;8.226;2022-09-03T00:41:48;17.80;99.90
13697;DHT22;6920;50.080;8.226;2022-09-03T00:44:32;17.80;99.90
13697;DHT22;6920;50.080;8.226;2022-09-03T00:47:08;17.90;99.90
13697;DHT22;6920;50.080;8.226;2022-09-03T00:49:49;17.90;99.90
13697;DHT22;6920;50.080;8.226;2022-09-03T00:52:37;17.90;99.90
13697;DHT22;6920;50.080;8.226;2022-09-03T00:55:21;17.60;99.90
13697;DHT22;6920;50.080;8.226;2022-09-03T00:58:06;17.20;99.90
13697;DHT22;6920;50.080;8.226;2022-09-03T01:00:42;17.10;99.90
13697;DHT22;6920;50.080;8.226;2022-09-03T01:03:13;17.10;99.90
13697;DHT22;6920;50.080;8.226;2022-09-03T01:05:58;17.00;99.90
13697;DHT22;6920;50.080;8.226;2022-09-03T01:08:45;17.00;99.90
13697;DHT22;6920;50.080;8.226;2022-09-03T01:11:26;17.00;99.90
13697;DHT22;6920;50.080;8.226;2022-09-03T01:19:18;16.90;99.90
13697;DHT22;6920;50.080;8.226;2022-09-03T01:28:00;16.70;99.90
13697;DHT22;6920;50.080;8.226;2022-09-03T01:30:32;16.80;99.90
13697;DHT22;6920;50.080;8.226;2022-09-03T01:33:09;16.70;99.90
13697;DHT22;6920;50.080;8.226;2022-09-03T01:35:46;16.60;99.90
13697;DHT22;6920;50.080;8.226;2022-09-03T01:38:22;16.60;99.90
13697;DHT22;6920;50.080;8.226;2022-09-03T01:44:00;16.50;99.90
13697;DHT22;6920;50.080;8.226;2022-09-03T01:49:15;16.70;99.90
13697;DHT22;6920;50.080;8.226;2022-09-03T01:51:58;16.80;99.90
13697;DHT22;6920;50.080;8.226;2022-09-03T01:57:31;16.80;99.90
13697;DHT22;6920;50.080;8.226;2022-09-03T02:00:09;16.80;99.90
13697;DHT22;6920;50.080;8.226;2022-09-03T02:02:43;16.70;99.90
13697;DHT22;6920;50.080;8.226;2022-09-03T02:10:25;16.40;99.90
13697;DHT22;6920;50.080;8.226;2022-09-03T02:13:05;16.10;99.90
13697;DHT22;6920;50.080;8.226;2022-09-03T02:19:03;16.10;99.90
13697;DHT22;6920;50.080;8.226;2022-09-03T02:24:03;16.20;99.90
13697;DHT22;6920;50.080;8.226;2022-09-03T02:29:11;16.50;99.90
13697;DHT22;6920;50.080;8.226;2022-09-03T02:34:15;16.90;99.90
13697;DHT22;6920;50.080;8.226;2022-09-03T02:36:51;17.10;99.90
13697;DHT22;6920;50.080;8.226;2022-09-03T02:39:19;17.20;99.90
13697;DHT22;6920;50.080;8.226;2022-09-03T02:41:50;17.30;99.90
13697;DHT22;6920;50.080;8.226;2022-09-03T02:44:27;17.40;99.90
13697;DHT22;6920;50.080;8.226;2022-09-03T02:46:58;17.50;99.90
13697;DHT22;6920;50.080;8.226;2022-09-03T02:49:29;17.50;99.90
13697;DHT22;6920;50.080;8.226;2022-09-03T02:52:01;17.40;99.90
13697;DHT22;6920;50.080;8.226;2022-09-03T02:54:33;17.40;99.90
13697;DHT22;6920;50.080;8.226;2022-09-03T02:57:05;17.30;99.90
13697;DHT22;6920;50.080;8.226;2022-09-03T02:59:33;17.20;99.90
13697;DHT22;6920;50.080;8.226;2022-09-03T03:02:05;17.10;99.90
13697;DHT22;6920;50.080;8.226;2022-09-03T03:04:38;17.00;99.90
13697;DHT22;6920;50.080;8.226;2022-09-03T03:07:07;17.00;99.90
13697;DHT22;6920;50.080;8.226;2022-09-03T03:09:35;16.90;99.90
13697;DHT22;6920;50.080;8.226;2022-09-03T03:12:06;16.90;99.90
13697;DHT22;6920;50.080;8.226;2022-09-03T03:14:36;17.00;99.90
13697;DHT22;6920;50.080;8.226;2022-09-03T03:17:13;17.10;99.90
13697;DHT22;6920;50.080;8.226;2022-09-03T03:19:47;17.20;99.90
13697;DHT22;6920;50.080;8.226;2022-09-03T03:22:15;17.30;99.90
13697;DHT22;6920;50.080;8.226;2022-09-03T03:24:46;17.30;99.90
13697;DHT22;6920;50.080;8.226;2022-09-03T03:27:15;17.20;99.90
13697;DHT22;6920;50.080;8.226;2022-09-03T03:29:43;17.10;99.90
13697;DHT22;6920;50.080;8.226;2022-09-03T03:32:13;17.10;99.90
13697;DHT22;6920;50.080;8.226;2022-09-03T03:34:55;17.20;99.90
13697;DHT22;6920;50.080;8.226;2022-09-03T03:37:22;17.20;99.90
13697;DHT22;6920;50.080;8.226;2022-09-03T03:39:54;17.40;99.90
13697;DHT22;6920;50.080;8.226;2022-09-03T03:42:22;17.40;99.90
13697;DHT22;6920;50.080;8.226;2022-09-03T03:44:50;17.50;99.90
13697;DHT22;6920;50.080;8.226;2022-09-03T03:47:19;17.60;99.90
13697;DHT22;6920;50.080;8.226;2022-09-03T03:49:51;17.70;99.90
13697;DHT22;6920;50.080;8.226;2022-09-03T03:52:27;17.90;99.90
13697;DHT22;6920;50.080;8.226;2022-09-03T03:54:54;18.00;99.90
13697;DHT22;6920;50.080;8.226;2022-09-03T03:57:22;18.00;99.90
13697;DHT22;6920;50.080;8.226;2022-09-03T03:59:50;18.00;99.90
13697;DHT22;6920;50.080;8.226;2022-09-03T04:02:19;18.00;99.90
13697;DHT22;6920;50.080;8.226;2022-09-03T04:04:52;18.00;99.90
13697;DHT22;6920;50.080;8.226;2022-09-03T04:07:21;18.00;99.90
13697;DHT22;6920;50.080;8.226;2022-09-03T04:09:49;18.00;99.90
13697;DHT22;6920;50.080;8.226;2022-09-03T04:12:25;17.90;99.90
13697;DHT22;6920;50.080;8.226;2022-09-03T04:15:08;17.90;99.90
13697;DHT22;6920;50.080;8.226;2022-09-03T04:17:39;17.90;99.90
13697;DHT22;6920;50.080;8.226;2022-09-03T04:20:20;17.90;99.90
13697;DHT22;6920;50.080;8.226;2022-09-03T04:23:02;17.80;99.90
13697;DHT22;6920;50.080;8.226;2022-09-03T04:25:30;17.80;99.90
13697;DHT22;6920;50.080;8.226;2022-09-03T04:27:58;17.80;99.90
13697;DHT22;6920;50.080;8.226;2022-09-03T04:30:35;17.80;99.90
13697;DHT22;6920;50.080;8.226;2022-09-03T04:33:06;17.80;99.90
13697;DHT22;6920;50.080;8.226;2022-09-03T04:35:41;17.80;99.90
13697;DHT22;6920;50.080;8.226;2022-09-03T04:38:12;17.70;99.90
13697;DHT22;6920;50.080;8.226;2022-09-03T04:43:12;17.90;99.90
13697;DHT22;6920;50.080;8.226;2022-09-03T04:45:42;17.90;99.90
13697;DHT22;6920;50.080;8.226;2022-09-03T04:48:13;18.00;99.90
13697;DHT22;6920;50.080;8.226;2022-09-03T04:50:41;17.80;99.90
13697;DHT22;6920;50.080;8.226;2022-09-03T04:53:11;17.80;99.90
13697;DHT22;6920;50.080;8.226;2022-09-03T04:55:41;17.90;99.90
13697;DHT22;6920;50.080;8.226;2022-09-03T04:58:08;18.00;99.90
13697;DHT22;6920;50.080;8.226;2022-09-03T05:00:35;17.90;99.90
13697;DHT22;6920;50.080;8.226;2022-09-03T05:03:04;17.90;99.90
13697;DHT22;6920;50.080;8.226;2022-09-03T05:05:32;17.90;99.90
13697;DHT22;6920;50.080;8.226;2022-09-03T05:08:06;17.90;99.90
13697;DHT22;6920;50.080;8.226;2022-09-03T05:10:38;17.90;99.90
13697;DHT22;6920;50.080;8.226;2022-09-03T05:13:06;17.90;99.90
13697;DHT22;6920;50.080;8.226;2022-09-03T05:15:34;17.90;99.90
13697;DHT22;6920;50.080;8.226;2022-09-03T05:18:05;18.00;99.90
13697;DHT22;6920;50.080;8.226;2022-09-03T05:20:32;18.00;99.90
13697;DHT22;6920;50.080;8.226;2022-09-03T05:23:06;18.10;99.90
13697;DHT22;6920;50.080;8.226;2022-09-03T05:25:36;18.10;99.90
13697;DHT22;6920;50.080;8.226;2022-09-03T05:28:06;18.10;99.90
13697;DHT22;6920;50.080;8.226;2022-09-03T05:30:33;18.10;99.90
13697;DHT22;6920;50.080;8.226;2022-09-03T05:33:01;18.10;99.90
13697;DHT22;6920;50.080;8.226;2022-09-03T05:35:32;18.10;99.90
13697;DHT22;6920;50.080;8.226;2022-09-03T05:38:05;18.20;99.90
13697;DHT22;6920;50.080;8.226;2022-09-03T05:40:36;18.10;99.90
13697;DHT22;6920;50.080;8.226;2022-09-03T05:43:04;18.10;99.90
13697;DHT22;6920;50.080;8.226;2022-09-03T05:45:34;18.20;99.90
13697;DHT22;6920;50.080;8.226;2022-09-03T05:48:03;18.10;99.90
13697;DHT22;6920;50.080;8.226;2022-09-03T05:50:31;18.10;99.90
13697;DHT22;6920;50.080;8.226;2022-09-03T05:55:32;18.10;99.90
13697;DHT22;6920;50.080;8.226;2022-09-03T05:58:01;18.10;99.90
13697;DHT22;6920;50.080;8.226;2022-09-03T06:00:29;18.00;99.90
13697;DHT22;6920;50.080;8.226;2022-09-03T06:02:56;17.90;99.90
13697;DHT22;6920;50.080;8.226;2022-09-03T06:05:26;17.80;99.90
13697;DHT22;6920;50.080;8.226;2022-09-03T06:07:55;17.60;99.90
13697;DHT22;6920;50.080;8.226;2022-09-03T06:10:23;17.10;99.90
13697;DHT22;6920;50.080;8.226;2022-09-03T06:12:55;16.60;99.90
13697;DHT22;6920;50.080;8.226;2022-09-03T06:17:57;16.30;99.90
13697;DHT22;6920;50.080;8.226;2022-09-03T06:20:28;16.30;99.90
13697;DHT22;6920;50.080;8.226;2022-09-03T06:22:57;16.30;99.90
13697;DHT22;6920;50.080;8.226;2022-09-03T06:25:28;16.20;99.90
13697;DHT22;6920;50.080;8.226;2022-09-03T06:28:03;16.40;99.90
13697;DHT22;6920;50.080;8.226;2022-09-03T06:33:02;16.90;99.90
13697;DHT22;6920;50.080;8.226;2022-09-03T06:35:31;17.00;99.90
13697;DHT22;6920;50.080;8.226;2022-09-03T06:38:01;16.80;99.90
13697;DHT22;6920;50.080;8.226;2022-09-03T06:40:32;16.70;99.90
13697;DHT22;6920;50.080;8.226;2022-09-03T06:45:35;16.50;99.90
13697;DHT22;6920;50.080;8.226;2022-09-03T06:48:05;16.50;99.90
13697;DHT22;6920;50.080;8.226;2022-09-03T06:50:34;16.50;99.90
13697;DHT22;6920;50.080;8.226;2022-09-03T06:53:03;16.40;99.90
13697;DHT22;6920;50.080;8.226;2022-09-03T06:55:33;16.50;99.90
13697;DHT22;6920;50.080;8.226;2022-09-03T06:58:08;16.40;99.90
13697;DHT22;6920;50.080;8.226;2022-09-03T07:00:37;16.20;99.90
13697;DHT22;6920;50.080;8.226;2022-09-03T07:03:05;16.20;99.90
13697;DHT22;6920;50.080;8.226;2022-09-03T07:05:35;16.10;99.90
13697;DHT22;6920;50.080;8.226;2022-09-03T07:10:38;16.10;99.90
13697;DHT22;6920;50.080;8.226;2022-09-03T07:13:16;16.10;99.90
13697;DHT22;6920;50.080;8.226;2022-09-03T07:15:46;16.00;99.90
13697;DHT22;6920;50.080;8.226;2022-09-03T07:18:20;15.90;99.90
13697;DHT22;6920;50.080;8.226;2022-09-03T07:20:49;15.80;99.90
13697;DHT22;6920;50.080;8.226;2022-09-03T07:25:52;15.80;99.90
13697;DHT22;6920;50.080;8.226;2022-09-03T07:28:22;15.90;99.90
13697;DHT22;6920;50.080;8.226;2022-09-03T07:30:53;15.90;99.90
13697;DHT22;6920;50.080;8.226;2022-09-03T07:33:22;15.90;99.90
13697;DHT22;6920;50.080;8.226;2022-09-03T07:41:00;15.90;99.90
13697;DHT22;6920;50.080;8.226;2022-09-03T07:43:36;15.90;99.90
13697;DHT22;6920;50.080;8.226;2022-09-03T07:46:05;16.00;99.90
13697;DHT22;6920;50.080;8.226;2022-09-03T07:51:16;16.00;99.90
13697;DHT22;6920;50.080;8.226;2022-09-03T07:56:11;16.00;99.90
13697;DHT22;6920;50.080;8.226;2022-09-03T07:58:41;16.10;99.90
13697;DHT22;6920;50.080;8.226;2022-09-03T08:01:13;16.00;99.90
13697;DHT22;6920;50.080;8.226;2022-09-03T08:03:43;16.00;99.90
13697;DHT22;6920;50.080;8.226;2022-09-03T08:06:16;16.10;99.90
13697;DHT22;6920;50.080;8.226;2022-09-03T08:08:44;16.10;99.90
13697;DHT22;6920;50.080;8.226;2022-09-03T08:11:13;16.10;99.90
13697;DHT22;6920;50.080;8.226;2022-09-03T08:13:44;16.10;99.90
13697;DHT22;6920;50.080;8.226;2022-09-03T08:16:17;16.10;99.90
13697;DHT22;6920;50.080;8.226;2022-09-03T08:18:44;16.10;99.90
13697;DHT22;6920;50.080;8.226;2022-09-03T08:21:15;16.20;99.90
13697;DHT22;6920;50.080;8.226;2022-09-03T08:23:45;16.20;99.90
13697;DHT22;6920;50.080;8.226;2022-09-03T08:26:13;16.20;99.90
13697;DHT22;6920;50.080;8.226;2022-09-03T08:28:43;16.30;99.90
13697;DHT22;6920;50.080;8.226;2022-09-03T08:31:14;16.40;99.90
13697;DHT22;6920;50.080;8.226;2022-09-03T08:33:45;16.40;99.90
13697;DHT22;6920;50.080;8.226;2022-09-03T08:36:15;16.60;99.90
13697;DHT22;6920;50.080;8.226;2022-09-03T08:38:44;16.70;99.90
13697;DHT22;6920;50.080;8.226;2022-09-03T08:41:13;16.80;99.90
13697;DHT22;6920;50.080;8.226;2022-09-03T08:44:15;16.90;99.90
13697;DHT22;6920;50.080;8.226;2022-09-03T08:46:52;17.10;99.90
13697;DHT22;6920;50.080;8.226;2022-09-03T08:49:30;17.00;99.90
13697;DHT22;6920;50.080;8.226;2022-09-03T08:52:04;17.10;99.90
13697;DHT22;6920;50.080;8.226;2022-09-03T08:54:37;17.20;99.90
13697;DHT22;6920;50.080;8.226;2022-09-03T08:57:16;17.20;99.90
13697;DHT22;6920;50.080;8.226;2022-09-03T08:59:47;17.30;99.90
13697;DHT22;6920;50.080;8.226;2022-09-03T09:02:25;16.90;99.90
13697;DHT22;6920;50.080;8.226;2022-09-03T09:04:59;17.10;99.90
13697;DHT22;6920;50.080;8.226;2022-09-03T09:07:38;17.20;99.90
13697;DHT22;6920;50.080;8.226;2022-09-03T09:10:13;17.20;99.90
13697;DHT22;6920;50.080;8.226;2022-09-03T09:12:50;17.20;99.90
13697;DHT22;6920;50.080;8.226;2022-09-03T09:15:35;17.00;99.90
13697;DHT22;6920;50.080;8.226;2022-09-03T09:18:16;17.20;99.90
13697;DHT22;6920;50.080;8.226;2022-09-03T09:20:48;17.20;99.90
13697;DHT22;6920;50.080;8.226;2022-09-03T09:23:23;17.40;99.90
13697;DHT22;6920;50.080;8.226;2022-09-03T09:25:54;17.40;99.90
13697;DHT22;6920;50.080;8.226;2022-09-03T09:28:29;17.50;99.90
13697;DHT22;6920;50.080;8.226;2022-09-03T09:31:02;17.40;99.90
13697;DHT22;6920;50.080;8.226;2022-09-03T09:33:36;17.60;99.90
13697;DHT22;6920;50.080;8.226;2022-09-03T09:36:07;17.70;99.90
13697;DHT22;6920;50.080;8.226;2022-09-03T09:38:41;18.00;99.90
13697;DHT22;6920;50.080;8.226;2022-09-03T09:41:10;18.10;99.90
13697;DHT22;6920;50.080;8.226;2022-09-03T09:43:37;18.60;99.90
13697;DHT22;6920;50.080;8.226;2022-09-03T09:46:12;18.80;99.90
13697;DHT22;6920;50.080;8.226;2022-09-03T09:48:48;18.50;99.90
13697;DHT22;6920;50.080;8.226;2022-09-03T09:51:22;19.10;99.90
13697;DHT22;6920;50.080;8.226;2022-09-03T09:54:12;19.90;99.90
13697;DHT22;6920;50.080;8.226;2022-09-03T09:56:42;19.60;99.90
13697;DHT22;6920;50.080;8.226;2022-09-03T09:59:14;19.50;99.90
13697;DHT22;6920;50.080;8.226;2022-09-03T10:02:08;19.30;99.90
13697;DHT22;6920;50.080;8.226;2022-09-03T10:04:37;19.70;99.90
13697;DHT22;6920;50.080;8.226;2022-09-03T10:07:21;20.00;99.90
13697;DHT22;6920;50.080;8.226;2022-09-03T10:10:00;20.20;99.90
13697;DHT22;6920;50.080;8.226;2022-09-03T10:12:34;20.50;99.90
13697;DHT22;6920;50.080;8.226;2022-09-03T10:15:24;20.60;99.90
13697;DHT22;6920;50.080;8.226;2022-09-03T10:18:21;20.70;99.90
13697;DHT22;6920;50.080;8.226;2022-09-03T10:21:01;20.70;99.90
13697;DHT22;6920;50.080;8.226;2022-09-03T10:23:46;20.60;99.90
13697;DHT22;6920;50.080;8.226;2022-09-03T10:26:20;20.70;99.90
13697;DHT22;6920;50.080;8.226;2022-09-03T10:28:57;21.00;99.90
13697;DHT22;6920;50.080;8.226;2022-09-03T10:31:40;21.10;99.90
13697;DHT22;6920;50.080;8.226;2022-09-03T10:34:21;21.10;99.90
13697;DHT22;6920;50.080;8.226;2022-09-03T10:37:06;21.10;99.90
13697;DHT22;6920;50.080;8.226;2022-09-03T10:39:49;21.20;99.90
13697;DHT22;6920;50.080;8.226;2022-09-03T10:42:43;21.00;99.90
13697;DHT22;6920;50.080;8.226;2022-09-03T10:45:18;21.00;99.90
13697;DHT22;6920;50.080;8.226;2022-09-03T10:48:13;21.00;99.90
13697;DHT22;6920;50.080;8.226;2022-09-03T10:50:52;21.00;99.90
13697;DHT22;6920;50.080;8.226;2022-09-03T10:53:43;21.00;99.90
13697;DHT22;6920;50.080;8.226;2022-09-03T10:56:18;21.60;99.90
13697;DHT22;6920;50.080;8.226;2022-09-03T10:59:09;21.40;99.90
13697;DHT22;6920;50.080;8.226;2022-09-03T11:01:50;22.70;99.90
13697;DHT22;6920;50.080;8.226;2022-09-03T11:04:29;23.40;99.90
13697;DHT22;6920;50.080;8.226;2022-09-03T11:07:03;23.10;99.90
13697;DHT22;6920;50.080;8.226;2022-09-03T11:09:36;22.90;99.90
13697;DHT22;6920;50.080;8.226;2022-09-03T11:12:08;22.40;99.90
13697;DHT22;6920;50.080;8.226;2022-09-03T11:14:41;22.10;99.90
13697;DHT22;6920;50.080;8.226;2022-09-03T11:17:14;21.90;99.90
13697;DHT22;6920;50.080;8.226;2022-09-03T11:19:52;21.50;99.90
13697;DHT22;6920;50.080;8.226;2022-09-03T11:22:29;21.50;99.90
13697;DHT22;6920;50.080;8.226;2022-09-03T11:25:00;21.70;99.90
13697;DHT22;6920;50.080;8.226;2022-09-03T11:27:44;22.00;99.90
13697;DHT22;6920;50.080;8.226;2022-09-03T11:30:23;22.20;99.90
13697;DHT22;6920;50.080;8.226;2022-09-03T11:32:55;22.30;99.90
13697;DHT22;6920;50.080;8.226;2022-09-03T11:35:26;22.10;99.90
13697;DHT22;6920;50.080;8.226;2022-09-03T11:38:00;22.10;99.90
13697;DHT22;6920;50.080;8.226;2022-09-03T11:40:34;22.00;99.90
13697;DHT22;6920;50.080;8.226;2022-09-03T11:43:07;22.40;99.90
13697;DHT22;6920;50.080;8.226;2022-09-03T11:45:39;22.90;99.90
13697;DHT22;6920;50.080;8.226;2022-09-03T11:48:39;23.20;99.90
13697;DHT22;6920;50.080;8.226;2022-09-03T11:51:31;23.50;99.90
13697;DHT22;6920;50.080;8.226;2022-09-03T11:54:24;23.30;99.90
13697;DHT22;6920;50.080;8.226;2022-09-03T11:57:11;24.30;99.90
13697;DHT22;6920;50.080;8.226;2022-09-03T11:59:41;25.00;99.90
13697;DHT22;6920;50.080;8.226;2022-09-03T12:02:25;24.30;99.90
13697;DHT22;6920;50.080;8.226;2022-09-03T12:05:12;24.00;99.90
13697;DHT22;6920;50.080;8.226;2022-09-03T12:07:52;23.40;99.90
13697;DHT22;6920;50.080;8.226;2022-09-03T12:10:33;23.40;99.90
13697;DHT22;6920;50.080;8.226;2022-09-03T12:13:21;24.20;99.90
13697;DHT22;6920;50.080;8.226;2022-09-03T12:16:04;24.60;99.90
13697;DHT22;6920;50.080;8.226;2022-09-03T12:18:35;24.90;99.90
13697;DHT22;6920;50.080;8.226;2022-09-03T12:21:17;25.20;99.90
13697;DHT22;6920;50.080;8.226;2022-09-03T12:23:51;25.30;99.90
13697;DHT22;6920;50.080;8.226;2022-09-03T12:26:25;25.70;99.90
13697;DHT22;6920;50.080;8.226;2022-09-03T12:28:54;26.10;99.90
13697;DHT22;6920;50.080;8.226;2022-09-03T12:31:26;26.00;99.90
13697;DHT22;6920;50.080;8.226;2022-09-03T12:33:57;26.10;99.90
13697;DHT22;6920;50.080;8.226;2022-09-03T12:36:39;26.00;99.90
13697;DHT22;6920;50.080;8.226;2022-09-03T12:39:08;25.80;99.90
13697;DHT22;6920;50.080;8.226;2022-09-03T12:41:53;25.60;99.90
13697;DHT22;6920;50.080;8.226;2022-09-03T12:44:29;26.20;99.90
13697;DHT22;6920;50.080;8.226;2022-09-03T12:47:06;26.60;99.90
13697;DHT22;6920;50.080;8.226;2022-09-03T12:49:39;26.70;99.90
13697;DHT22;6920;50.080;8.226;2022-09-03T12:52:15;25.60;99.90
13697;DHT22;6920;50.080;8.226;2022-09-03T12:54:49;26.70;99.90
13697;DHT22;6920;50.080;8.226;2022-09-03T12:57:32;25.40;99.90
13697;DHT22;6920;50.080;8.226;2022-09-03T13:00:09;26.00;99.90
13697;DHT22;6920;50.080;8.226;2022-09-03T13:02:43;26.70;99.90
13697;DHT22;6920;50.080;8.226;2022-09-03T13:05:17;27.10;99.90
13697;DHT22;6920;50.080;8.226;2022-09-03T13:07:48;26.70;99.90
13697;DHT22;6920;50.080;8.226;2022-09-03T13:10:26;27.30;99.90
13697;DHT22;6920;50.080;8.226;2022-09-03T13:16:10;27.30;99.90
13697;DHT22;6920;50.080;8.226;2022-09-03T13:18:57;27.60;99.90
13697;DHT22;6920;50.080;8.226;2022-09-03T13:21:54;26.00;99.90
13697;DHT22;6920;50.080;8.226;2022-09-03T13:24:52;25.90;99.90
13697;DHT22;6920;50.080;8.226;2022-09-03T13:27:28;25.40;99.90
13697;DHT22;6920;50.080;8.226;2022-09-03T13:35:27;25.70;99.90
13697;DHT22;6920;50.080;8.226;2022-09-03T13:38:05;25.30;99.90
13697;DHT22;6920;50.080;8.226;2022-09-03T13:40:41;25.00;99.90
13697;DHT22;6920;50.080;8.226;2022-09-03T13:43:27;24.80;99.90
13697;DHT22;6920;50.080;8.226;2022-09-03T13:46:07;24.60;99.90
13697;DHT22;6920;50.080;8.226;2022-09-03T13:48:40;24.40;99.90
13697;DHT22;6920;50.080;8.226;2022-09-03T13:51:28;24.40;99.90
13697;DHT22;6920;50.080;8.226;2022-09-03T13:54:10;24.20;99.90
13697;DHT22;6920;50.080;8.226;2022-09-03T13:59:29;24.00;99.90
13697;DHT22;6920;50.080;8.226;2022-09-03T14:02:22;24.20;99.90
13697;DHT22;6920;50.080;8.226;2022-09-03T14:05:06;24.10;99.90
13697;DHT22;6920;50.080;8.226;2022-09-03T14:07:58;24.00;99.90
13697;DHT22;6920;50.080;8.226;2022-09-03T14:10:52;24.20;99.90
13697;DHT22;6920;50.080;8.226;2022-09-03T14:13:37;24.40;99.90
13697;DHT22;6920;50.080;8.226;2022-09-03T14:16:16;24.40;99.90
13697;DHT22;6920;50.080;8.226;2022-09-03T14:18:54;24.70;99.90
13697;DHT22;6920;50.080;8.226;2022-09-03T14:21:27;24.90;99.90
13697;DHT22;6920;50.080;8.226;2022-09-03T14:24:03;25.00;99.90
13697;DHT22;6920;50.080;8.226;2022-09-03T14:26:33;25.10;99.90
13697;DHT22;6920;50.080;8.226;2022-09-03T14:29:02;25.00;99.90
13697;DHT22;6920;50.080;8.226;2022-09-03T14:31:54;24.70;99.90
13697;DHT22;6920;50.080;8.226;2022-09-03T14:34:34;24.40;99.90
13697;DHT22;6920;50.080;8.226;2022-09-03T14:37:08;24.80;99.90
13697;DHT22;6920;50.080;8.226;2022-09-03T14:39:46;25.00;99.90
13697;DHT22;6920;50.080;8.226;2022-09-03T14:42:44;25.10;99.90
13697;DHT22;6920;50.080;8.226;2022-09-03T14:45:48;25.10;99.90
13697;DHT22;6920;50.080;8.226;2022-09-03T14:48:35;24.70;99.90
13697;DHT22;6920;50.080;8.226;2022-09-03T14:57:05;24.10;99.90
13697;DHT22;6920;50.080;8.226;2022-09-03T15:05:33;24.50;99.90
13697;DHT22;6920;50.080;8.226;2022-09-03T15:08:27;24.40;99.90
13697;DHT22;6920;50.080;8.226;2022-09-03T15:11:16;24.40;99.90
13697;DHT22;6920;50.080;8.226;2022-09-03T15:13:50;24.10;99.90
13697;DHT22;6920;50.080;8.226;2022-09-03T15:16:30;24.10;99.90
13697;DHT22;6920;50.080;8.226;2022-09-03T15:19:41;24.30;99.90
13697;DHT22;6920;50.080;8.226;2022-09-03T15:22:19;24.40;99.90
13697;DHT22;6920;50.080;8.226;2022-09-03T15:24:55;24.30;99.90
13697;DHT22;6920;50.080;8.226;2022-09-03T15:27:42;24.30;99.90
13697;DHT22;6920;50.080;8.226;2022-09-03T15:30:14;24.10;99.90
13697;DHT22;6920;50.080;8.226;2022-09-03T15:32:49;23.90;99.90
13697;DHT22;6920;50.080;8.226;2022-09-03T15:35:42;23.80;99.90
13697;DHT22;6920;50.080;8.226;2022-09-03T15:45:52;23.50;99.90
13697;DHT22;6920;50.080;8.226;2022-09-03T15:58:47;23.10;99.90
13697;DHT22;6920;50.080;8.226;2022-09-03T16:01:25;23.10;99.90
13697;DHT22;6920;50.080;8.226;2022-09-03T16:04:04;23.20;99.90
13697;DHT22;6920;50.080;8.226;2022-09-03T16:06:48;23.20;99.90
13697;DHT22;6920;50.080;8.226;2022-09-03T16:09:38;23.20;99.90
13697;DHT22;6920;50.080;8.226;2022-09-03T16:14:57;23.10;99.90
13697;DHT22;6920;50.080;8.226;2022-09-03T16:17:31;23.00;99.90
13697;DHT22;6920;50.080;8.226;2022-09-03T16:20:04;23.00;99.90
13697;DHT22;6920;50.080;8.226;2022-09-03T16:22:42;23.00;99.90
13697;DHT22;6920;50.080;8.226;2022-09-03T16:27:52;22.90;99.90
13697;DHT22;6920;50.080;8.226;2022-09-03T16:30:30;22.80;99.90
13697;DHT22;6920;50.080;8.226;2022-09-03T16:38:17;21.50;99.90
13697;DHT22;6920;50.080;8.226;2022-09-03T16:40:53;21.10;99.90
13697;DHT22;6920;50.080;8.226;2022-09-03T16:43:41;20.90;99.90
13697;DHT22;6920;50.080;8.226;2022-09-03T16:46:19;20.80;99.90
13697;DHT22;6920;50.080;8.226;2022-09-03T16:48:57;20.60;99.90
13697;DHT22;6920;50.080;8.226;2022-09-03T16:51:34;20.40;99.90
13697;DHT22;6920;50.080;8.226;2022-09-03T16:54:25;20.30;99.90
13697;DHT22;6920;50.080;8.226;2022-09-03T16:57:09;20.20;99.90
13697;DHT22;6920;50.080;8.226;2022-09-03T17:08:49;20.00;99.90
13697;DHT22;6920;50.080;8.226;2022-09-03T17:11:46;20.10;99.90
13697;DHT22;6920;50.080;8.226;2022-09-03T17:14:43;20.00;99.90
13697;DHT22;6920;50.080;8.226;2022-09-03T17:17:23;20.10;99.90
13697;DHT22;6920;50.080;8.226;2022-09-03T17:20:06;20.10;99.90
13697;DHT22;6920;50.080;8.226;2022-09-03T17:22:47;20.00;99.90
13697;DHT22;6920;50.080;8.226;2022-09-03T17:25:25;20.00;99.90
13697;DHT22;6920;50.080;8.226;2022-09-03T17:28:11;20.10;99.90
13697;DHT22;6920;50.080;8.226;2022-09-03T17:30:50;20.10;99.90
13697;DHT22;6920;50.080;8.226;2022-09-03T17:33:40;20.10;99.90
13697;DHT22;6920;50.080;8.226;2022-09-03T17:36:15;20.00;99.90
13697;DHT22;6920;50.080;8.226;2022-09-03T17:41:51;19.90;99.90
13697;DHT22;6920;50.080;8.226;2022-09-03T17:44:36;19.90;99.90
13697;DHT22;6920;50.080;8.226;2022-09-03T17:50:19;19.90;99.90
13697;DHT22;6920;50.080;8.226;2022-09-03T17:52:54;20.00;99.90
13697;DHT22;6920;50.080;8.226;2022-09-03T17:55:29;20.10;99.90
13697;DHT22;6920;50.080;8.226;2022-09-03T17:58:04;20.00;99.90
13697;DHT22;6920;50.080;8.226;2022-09-03T18:00:37;20.00;99.90
13697;DHT22;6920;50.080;8.226;2022-09-03T18:03:17;20.00;99.90
13697;DHT22;6920;50.080;8.226;2022-09-03T18:05:51;19.90;99.90
13697;DHT22;6920;50.080;8.226;2022-09-03T18:08:32;19.90;99.90
13697;DHT22;6920;50.080;8.226;2022-09-03T18:11:09;19.90;99.90
13697;DHT22;6920;50.080;8.226;2022-09-03T18:13:53;19.80;99.90
13697;DHT22;6920;50.080;8.226;2022-09-03T18:16:26;19.70;99.90
13697;DHT22;6920;50.080;8.226;2022-09-03T18:19:01;19.70;99.90
13697;DHT22;6920;50.080;8.226;2022-09-03T18:21:36;19.70;99.90
13697;DHT22;6920;50.080;8.226;2022-09-03T18:24:28;19.60;99.90
13697;DHT22;6920;50.080;8.226;2022-09-03T18:27:18;19.60;99.90
13697;DHT22;6920;50.080;8.226;2022-09-03T18:30:08;19.60;99.90
13697;DHT22;6920;50.080;8.226;2022-09-03T18:32:55;19.50;99.90
13697;DHT22;6920;50.080;8.226;2022-09-03T18:35:42;19.40;99.90
13697;DHT22;6920;50.080;8.226;2022-09-03T18:38:33;19.50;99.90
13697;DHT22;6920;50.080;8.226;2022-09-03T18:41:47;19.30;99.90
13697;DHT22;6920;50.080;8.226;2022-09-03T18:44:48;19.30;99.90
13697;DHT22;6920;50.080;8.226;2022-09-03T18:47:47;19.30;99.90
13697;DHT22;6920;50.080;8.226;2022-09-03T18:50:44;19.20;99.90
13697;DHT22;6920;50.080;8.226;2022-09-03T18:53:41;19.10;99.90
13697;DHT22;6920;50.080;8.226;2022-09-03T18:56:36;19.10;99.90
13697;DHT22;6920;50.080;8.226;2022-09-03T18:59:43;19.10;99.90